sensor_id;sensor_type;location;lat;lon;timestamp;pressure;altitude;pressure_sealevel;temperature;humidity
50672;BME280;46021;55.882;37.654;2022-11-20T00:01:30;99608.81;;;-4.79;85.00
50672;BME280;46021;55.882;37.654;2022-11-20T00:03:58;99597.66;;;-4.84;84.50
50672;BME280;46021;55.882;37.654;2022-11-20T00:06:26;99603.47;;;-4.88;84.01
50672;BME280;46021;55.882;37.654;2022-11-20T00:08:55;99578.88;;;-4.89;84.58
50672;BME280;46021;55.882;37.654;2022-11-20T00:11:24;99594.88;;;-4.93;84.70
50672;BME280;46021;55.882;37.654;2022-11-20T00:13:54;99611.09;;;-4.90;84.96
50672;BME280;46021;55.882;37.654;2022-11-20T00:16:24;99614.75;;;-4.80;84.36
50672;BME280;46021;55.882;37.654;2022-11-20T00:18:53;99601.94;;;-4.83;83.91
50672;BME280;46021;55.882;37.654;2022-11-20T00:21:21;99610.41;;;-4.82;84.19
50672;BME280;46021;55.882;37.654;2022-11-20T00:23:50;99596.75;;;-4.86;84.22
50672;BME280;46021;55.882;37.654;2022-11-20T00:26:19;99608.72;;;-4.83;83.72
50672;BME280;46021;55.882;37.654;2022-11-20T00:28:49;99607.66;;;-4.90;84.44
50672;BME280;46021;55.882;37.654;2022-11-20T00:31:19;99609.28;;;-4.92;85.02
50672;BME280;46021;55.882;37.654;2022-11-20T00:33:46;99617.66;;;-4.96;84.44
50672;BME280;46021;55.882;37.654;2022-11-20T00:36:15;99610.25;;;-4.88;84.74
50672;BME280;46021;55.882;37.654;2022-11-20T00:38:43;99603.47;;;-4.90;83.99
50672;BME280;46021;55.882;37.654;2022-11-20T00:41:12;99605.28;;;-4.84;84.21
50672;BME280;46021;55.882;37.654;2022-11-20T00:43:40;99611.97;;;-4.87;84.71
50672;BME280;46021;55.882;37.654;2022-11-20T00:46:09;99610.28;;;-4.87;83.74
50672;BME280;46021;55.882;37.654;2022-11-20T00:48:38;99606.13;;;-4.85;83.81
50672;BME280;46021;55.882;37.654;2022-11-20T00:51:06;99602.63;;;-4.88;84.04
50672;BME280;46021;55.882;37.654;2022-11-20T00:53:33;99611.19;;;-4.85;84.16
50672;BME280;46021;55.882;37.654;2022-11-20T00:56:01;99597.59;;;-4.87;83.40
50672;BME280;46021;55.882;37.654;2022-11-20T00:58:30;99609.13;;;-4.98;84.41
50672;BME280;46021;55.882;37.654;2022-11-20T01:01:02;99594.41;;;-5.09;84.46
50672;BME280;46021;55.882;37.654;2022-11-20T01:03:30;99605.00;;;-4.95;83.98
50672;BME280;46021;55.882;37.654;2022-11-20T01:06:01;99605.13;;;-4.90;83.94
50672;BME280;46021;55.882;37.654;2022-11-20T01:08:32;99605.06;;;-4.92;83.92
50672;BME280;46021;55.882;37.654;2022-11-20T01:11:00;99605.50;;;-5.06;84.19
50672;BME280;46021;55.882;37.654;2022-11-20T01:13:29;99605.22;;;-5.16;84.05
50672;BME280;46021;55.882;37.654;2022-11-20T01:16:07;99602.91;;;-5.08;83.96
50672;BME280;46021;55.882;37.654;2022-11-20T01:18:35;99610.66;;;-5.03;83.63
50672;BME280;46021;55.882;37.654;2022-11-20T01:21:06;99608.94;;;-5.04;84.05
50672;BME280;46021;55.882;37.654;2022-11-20T01:23:35;99602.97;;;-5.05;83.74
50672;BME280;46021;55.882;37.654;2022-11-20T01:26:05;99600.41;;;-5.06;83.43
50672;BME280;46021;55.882;37.654;2022-11-20T01:28:33;99600.41;;;-5.06;83.41
50672;BME280;46021;55.882;37.654;2022-11-20T01:31:01;99598.59;;;-5.11;84.16
50672;BME280;46021;55.882;37.654;2022-11-20T01:33:28;99596.94;;;-5.09;83.74
50672;BME280;46021;55.882;37.654;2022-11-20T01:36:05;99610.66;;;-5.03;83.83
50672;BME280;46021;55.882;37.654;2022-11-20T01:38:33;99608.47;;;-5.20;83.45
50672;BME280;46021;55.882;37.654;2022-11-20T01:41:00;99603.50;;;-5.17;84.00
50672;BME280;46021;55.882;37.654;2022-11-20T01:43:28;99606.59;;;-5.27;83.60
50672;BME280;46021;55.882;37.654;2022-11-20T01:46:08;99619.34;;;-5.25;83.79
50672;BME280;46021;55.882;37.654;2022-11-20T01:48:44;99613.47;;;-5.23;83.82
50672;BME280;46021;55.882;37.654;2022-11-20T01:51:20;99623.09;;;-5.13;83.31
50672;BME280;46021;55.882;37.654;2022-11-20T01:53:48;99626.59;;;-5.09;83.03
50672;BME280;46021;55.882;37.654;2022-11-20T01:56:16;99630.91;;;-5.06;83.01
50672;BME280;46021;55.882;37.654;2022-11-20T01:58:47;99632.50;;;-5.10;83.66
50672;BME280;46021;55.882;37.654;2022-11-20T02:01:15;99635.16;;;-5.05;83.21
50672;BME280;46021;55.882;37.654;2022-11-20T02:03:43;99634.16;;;-5.11;83.36
50672;BME280;46021;55.882;37.654;2022-11-20T02:06:16;99642.00;;;-5.04;82.39
50672;BME280;46021;55.882;37.654;2022-11-20T02:08:45;99635.16;;;-5.05;83.05
50672;BME280;46021;55.882;37.654;2022-11-20T02:11:13;99634.09;;;-5.14;83.17
50672;BME280;46021;55.882;37.654;2022-11-20T02:13:40;99635.78;;;-5.13;83.13
50672;BME280;46021;55.882;37.654;2022-11-20T02:16:20;99638.25;;;-5.16;82.92
50672;BME280;46021;55.882;37.654;2022-11-20T02:18:48;99639.25;;;-5.11;83.15
50672;BME280;46021;55.882;37.654;2022-11-20T02:21:33;99633.03;;;-5.20;83.42
50672;BME280;46021;55.882;37.654;2022-11-20T02:24:04;99643.97;;;-5.23;82.89
50672;BME280;46021;55.882;37.654;2022-11-20T02:26:38;99649.00;;;-5.24;82.76
50672;BME280;46021;55.882;37.654;2022-11-20T02:29:06;99640.53;;;-5.25;83.28
50672;BME280;46021;55.882;37.654;2022-11-20T02:31:38;99649.91;;;-5.22;83.31
50672;BME280;46021;55.882;37.654;2022-11-20T02:34:06;99649.19;;;-5.18;82.67
50672;BME280;46021;55.882;37.654;2022-11-20T02:36:34;99656.84;;;-5.17;82.70
50672;BME280;46021;55.882;37.654;2022-11-20T02:39:04;99660.31;;;-5.15;82.99
50672;BME280;46021;55.882;37.654;2022-11-20T02:41:33;99650.97;;;-5.16;82.88
50672;BME280;46021;55.882;37.654;2022-11-20T02:44:01;99654.13;;;-5.23;82.88
50672;BME280;46021;55.882;37.654;2022-11-20T02:46:29;99659.50;;;-5.14;82.35
50672;BME280;46021;55.882;37.654;2022-11-20T02:48:56;99655.31;;;-5.12;82.70
50672;BME280;46021;55.882;37.654;2022-11-20T02:51:23;99654.41;;;-5.14;82.39
50672;BME280;46021;55.882;37.654;2022-11-20T02:53:50;99662.66;;;-5.21;82.64
50672;BME280;46021;55.882;37.654;2022-11-20T02:56:19;99660.22;;;-5.18;82.81
50672;BME280;46021;55.882;37.654;2022-11-20T02:58:46;99665.31;;;-5.18;82.39
50672;BME280;46021;55.882;37.654;2022-11-20T03:01:14;99663.50;;;-5.20;82.61
50672;BME280;46021;55.882;37.654;2022-11-20T03:03:41;99667.84;;;-5.18;82.77
50672;BME280;46021;55.882;37.654;2022-11-20T03:06:08;99667.75;;;-5.21;82.92
50672;BME280;46021;55.882;37.654;2022-11-20T03:08:35;99665.19;;;-5.21;82.87
50672;BME280;46021;55.882;37.654;2022-11-20T03:11:04;99663.63;;;-5.17;82.83
50672;BME280;46021;55.882;37.654;2022-11-20T03:13:33;99655.66;;;-5.28;82.95
50672;BME280;46021;55.882;37.654;2022-11-20T03:16:06;99666.53;;;-5.32;82.77
50672;BME280;46021;55.882;37.654;2022-11-20T03:18:34;99671.81;;;-5.26;82.51
50672;BME280;46021;55.882;37.654;2022-11-20T03:21:01;99667.41;;;-5.32;82.63
50672;BME280;46021;55.882;37.654;2022-11-20T03:23:30;99664.66;;;-5.38;82.89
50672;BME280;46021;55.882;37.654;2022-11-20T03:26:08;99667.34;;;-5.33;82.72
50672;BME280;46021;55.882;37.654;2022-11-20T03:28:37;99664.72;;;-5.36;83.25
50672;BME280;46021;55.882;37.654;2022-11-20T03:31:08;99660.38;;;-5.40;82.95
50672;BME280;46021;55.882;37.654;2022-11-20T03:33:36;99663.09;;;-5.34;83.42
50672;BME280;46021;55.882;37.654;2022-11-20T03:36:05;99679.53;;;-5.23;82.55
50672;BME280;46021;55.882;37.654;2022-11-20T03:38:32;99674.47;;;-5.23;82.46
50672;BME280;46021;55.882;37.654;2022-11-20T03:41:00;99665.34;;;-5.16;82.25
50672;BME280;46021;55.882;37.654;2022-11-20T03:43:28;99673.72;;;-5.19;82.57
50672;BME280;46021;55.882;37.654;2022-11-20T03:45:57;99672.88;;;-5.19;82.56
50672;BME280;46021;55.882;37.654;2022-11-20T03:48:24;99684.91;;;-5.14;82.60
50672;BME280;46021;55.882;37.654;2022-11-20T03:50:52;99683.28;;;-5.12;81.89
50672;BME280;46021;55.882;37.654;2022-11-20T03:53:19;99687.50;;;-5.12;81.95
50672;BME280;46021;55.882;37.654;2022-11-20T03:55:50;99685.63;;;-5.18;81.66
50672;BME280;46021;55.882;37.654;2022-11-20T03:58:18;99667.25;;;-5.36;82.38
50672;BME280;46021;55.882;37.654;2022-11-20T04:00:45;99681.16;;;-5.25;81.98
50672;BME280;46021;55.882;37.654;2022-11-20T04:03:13;99676.16;;;-5.22;81.84
50672;BME280;46021;55.882;37.654;2022-11-20T04:05:40;99681.16;;;-5.25;82.06
50672;BME280;46021;55.882;37.654;2022-11-20T04:08:07;99691.41;;;-5.22;82.22
50672;BME280;46021;55.882;37.654;2022-11-20T04:10:34;99689.66;;;-5.24;81.96
50672;BME280;46021;55.882;37.654;2022-11-20T04:13:03;99695.59;;;-5.24;82.01
50672;BME280;46021;55.882;37.654;2022-11-20T04:15:30;99694.13;;;-5.17;82.21
50672;BME280;46021;55.882;37.654;2022-11-20T04:17:57;99689.88;;;-5.17;82.17
50672;BME280;46021;55.882;37.654;2022-11-20T04:20:25;99703.63;;;-5.12;81.55
50672;BME280;46021;55.882;37.654;2022-11-20T04:22:53;99705.44;;;-5.07;82.02
50672;BME280;46021;55.882;37.654;2022-11-20T04:25:21;99700.22;;;-5.12;81.36
50672;BME280;46021;55.882;37.654;2022-11-20T04:27:48;99706.53;;;-5.26;81.75
50672;BME280;46021;55.882;37.654;2022-11-20T04:30:15;99712.56;;;-5.23;81.62
50672;BME280;46021;55.882;37.654;2022-11-20T04:32:42;99712.50;;;-5.24;80.98
50672;BME280;46021;55.882;37.654;2022-11-20T04:35:09;99723.03;;;-5.14;81.11
50672;BME280;46021;55.882;37.654;2022-11-20T04:37:38;99719.81;;;-5.08;81.67
50672;BME280;46021;55.882;37.654;2022-11-20T04:40:06;99717.22;;;-5.10;81.60
50672;BME280;46021;55.882;37.654;2022-11-20T04:42:33;99716.94;;;-5.19;81.42
50672;BME280;46021;55.882;37.654;2022-11-20T04:45:00;99722.97;;;-5.15;81.31
50672;BME280;46021;55.882;37.654;2022-11-20T04:47:29;99730.84;;;-5.07;81.35
50672;BME280;46021;55.882;37.654;2022-11-20T04:49:56;99732.47;;;-5.10;80.94
50672;BME280;46021;55.882;37.654;2022-11-20T04:52:24;99738.03;;;-5.21;81.34
50672;BME280;46021;55.882;37.654;2022-11-20T04:54:52;99737.44;;;-5.13;81.23
50672;BME280;46021;55.882;37.654;2022-11-20T04:57:20;99745.97;;;-5.11;80.80
50672;BME280;46021;55.882;37.654;2022-11-20T04:59:47;99752.94;;;-5.05;81.38
50672;BME280;46021;55.882;37.654;2022-11-20T05:02:14;99746.38;;;-4.98;80.73
50672;BME280;46021;55.882;37.654;2022-11-20T05:04:41;99747.84;;;-5.06;81.36
50672;BME280;46021;55.882;37.654;2022-11-20T05:07:08;99757.34;;;-4.99;80.63
50672;BME280;46021;55.882;37.654;2022-11-20T05:09:36;99768.34;;;-5.00;80.32
50672;BME280;46021;55.882;37.654;2022-11-20T05:12:06;99759.09;;;-4.98;80.97
50672;BME280;46021;55.882;37.654;2022-11-20T05:14:33;99759.22;;;-4.95;80.45
50672;BME280;46021;55.882;37.654;2022-11-20T05:17:00;99760.13;;;-4.93;80.50
50672;BME280;46021;55.882;37.654;2022-11-20T05:19:28;99769.56;;;-4.89;81.01
50672;BME280;46021;55.882;37.654;2022-11-20T05:21:55;99766.28;;;-4.85;81.02
50672;BME280;46021;55.882;37.654;2022-11-20T05:24:22;99751.75;;;-4.89;80.63
50672;BME280;46021;55.882;37.654;2022-11-20T05:26:49;99763.34;;;-4.97;80.66
50672;BME280;46021;55.882;37.654;2022-11-20T05:29:17;99766.84;;;-4.95;80.22
50672;BME280;46021;55.882;37.654;2022-11-20T05:31:45;99769.09;;;-5.03;80.27
50672;BME280;46021;55.882;37.654;2022-11-20T05:34:12;99782.59;;;-5.05;80.02
50672;BME280;46021;55.882;37.654;2022-11-20T05:36:39;99785.13;;;-5.05;80.25
50672;BME280;46021;55.882;37.654;2022-11-20T05:39:06;99779.28;;;-5.03;80.51
50672;BME280;46021;55.882;37.654;2022-11-20T05:41:33;99781.81;;;-5.03;80.38
50672;BME280;46021;55.882;37.654;2022-11-20T05:44:00;99789.44;;;-5.03;80.14
50672;BME280;46021;55.882;37.654;2022-11-20T05:46:29;99793.41;;;-5.11;79.86
50672;BME280;46021;55.882;37.654;2022-11-20T05:48:57;99791.13;;;-5.03;80.35
50672;BME280;46021;55.882;37.654;2022-11-20T05:51:24;99788.78;;;-4.97;80.58
50672;BME280;46021;55.882;37.654;2022-11-20T05:53:52;99783.59;;;-5.00;80.75
50672;BME280;46021;55.882;37.654;2022-11-20T05:56:20;99798.75;;;-5.03;80.51
50672;BME280;46021;55.882;37.654;2022-11-20T05:58:48;99796.00;;;-5.10;80.58
50672;BME280;46021;55.882;37.654;2022-11-20T06:01:17;99798.75;;;-5.03;80.31
50672;BME280;46021;55.882;37.654;2022-11-20T06:03:47;99809.69;;;-5.06;80.24
50672;BME280;46021;55.882;37.654;2022-11-20T06:06:16;99808.16;;;-5.01;79.87
50672;BME280;46021;55.882;37.654;2022-11-20T06:08:44;99815.16;;;-4.94;80.09
50672;BME280;46021;55.882;37.654;2022-11-20T06:11:12;99815.41;;;-4.86;80.75
50672;BME280;46021;55.882;37.654;2022-11-20T06:13:40;99813.69;;;-4.87;80.55
50672;BME280;46021;55.882;37.654;2022-11-20T06:16:08;99812.59;;;-4.95;79.63
50672;BME280;46021;55.882;37.654;2022-11-20T06:18:35;99826.28;;;-4.90;79.66
50672;BME280;46021;55.882;37.654;2022-11-20T06:21:05;99827.78;;;-4.97;80.16
50672;BME280;46021;55.882;37.654;2022-11-20T06:23:34;99838.00;;;-4.95;80.13
50672;BME280;46021;55.882;37.654;2022-11-20T06:26:02;99835.34;;;-4.98;79.42
50672;BME280;46021;55.882;37.654;2022-11-20T06:28:30;99838.00;;;-4.95;80.28
50672;BME280;46021;55.882;37.654;2022-11-20T06:30:58;99846.56;;;-4.93;79.55
50672;BME280;46021;55.882;37.654;2022-11-20T06:33:25;99843.47;;;-4.83;80.48
50672;BME280;46021;55.882;37.654;2022-11-20T06:35:56;99852.22;;;-4.75;79.96
50672;BME280;46021;55.882;37.654;2022-11-20T06:38:25;99854.16;;;-4.67;79.71
50672;BME280;46021;55.882;37.654;2022-11-20T06:40:52;99850.88;;;-4.63;80.42
50672;BME280;46021;55.882;37.654;2022-11-20T06:43:19;99858.91;;;-4.51;80.64
50672;BME280;46021;55.882;37.654;2022-11-20T06:45:46;99866.63;;;-4.48;79.63
50672;BME280;46021;55.882;37.654;2022-11-20T06:48:18;99864.63;;;-4.58;79.53
50672;BME280;46021;55.882;37.654;2022-11-20T06:50:45;99854.72;;;-4.49;79.89
50672;BME280;46021;55.882;37.654;2022-11-20T06:53:12;99858.28;;;-4.44;79.02
50672;BME280;46021;55.882;37.654;2022-11-20T06:55:43;99856.66;;;-4.42;79.20
50672;BME280;46021;55.882;37.654;2022-11-20T06:58:10;99857.91;;;-4.29;79.76
50672;BME280;46021;55.882;37.654;2022-11-20T07:00:38;99864.88;;;-4.22;78.33
50672;BME280;46021;55.882;37.654;2022-11-20T07:03:05;99858.09;;;-4.23;78.58
50672;BME280;46021;55.882;37.654;2022-11-20T07:05:32;99852.22;;;-4.20;79.24
50672;BME280;46021;55.882;37.654;2022-11-20T07:07:59;99834.41;;;-4.20;78.96
50672;BME280;46021;55.882;37.654;2022-11-20T07:10:27;99842.41;;;-4.08;78.31
50672;BME280;46021;55.882;37.654;2022-11-20T07:12:55;99840.84;;;-4.03;77.88
50672;BME280;46021;55.882;37.654;2022-11-20T07:15:23;99853.03;;;-3.93;78.16
50672;BME280;46021;55.882;37.654;2022-11-20T07:17:51;99851.06;;;-4.01;77.70
50672;BME280;46021;55.882;37.654;2022-11-20T07:20:18;99853.78;;;-3.95;78.34
50672;BME280;46021;55.882;37.654;2022-11-20T07:22:45;99852.78;;;-4.02;77.00
50672;BME280;46021;55.882;37.654;2022-11-20T07:25:12;99850.16;;;-4.03;77.65
50672;BME280;46021;55.882;37.654;2022-11-20T07:27:40;99847.53;;;-4.06;77.18
50672;BME280;46021;55.882;37.654;2022-11-20T07:30:09;99842.31;;;-4.11;76.51
50672;BME280;46021;55.882;37.654;2022-11-20T07:32:37;99849.31;;;-4.04;76.96
50672;BME280;46021;55.882;37.654;2022-11-20T07:35:04;99859.72;;;-3.96;77.75
50672;BME280;46021;55.882;37.654;2022-11-20T07:37:34;99857.28;;;-3.92;77.84
50672;BME280;46021;55.882;37.654;2022-11-20T07:40:01;99865.25;;;-3.81;77.75
50672;BME280;46021;55.882;37.654;2022-11-20T07:42:29;99873.00;;;-3.78;77.56
50672;BME280;46021;55.882;37.654;2022-11-20T07:44:56;99862.03;;;-3.75;76.69
50672;BME280;46021;55.882;37.654;2022-11-20T07:47:25;99864.84;;;-3.66;76.66
50672;BME280;46021;55.882;37.654;2022-11-20T07:49:52;99853.06;;;-3.62;77.97
50672;BME280;46021;55.882;37.654;2022-11-20T07:52:19;99854.59;;;-3.67;76.34
50672;BME280;46021;55.882;37.654;2022-11-20T07:54:46;99859.59;;;-3.70;76.17
50672;BME280;46021;55.882;37.654;2022-11-20T07:57:13;99861.97;;;-3.77;76.96
50672;BME280;46021;55.882;37.654;2022-11-20T07:59:40;99871.25;;;-3.79;76.19
50672;BME280;46021;55.882;37.654;2022-11-20T08:02:09;99878.84;;;-3.80;77.08
50672;BME280;46021;55.882;37.654;2022-11-20T08:04:38;99875.31;;;-3.85;76.62
50672;BME280;46021;55.882;37.654;2022-11-20T08:07:05;99877.31;;;-3.75;76.76
50672;BME280;46021;55.882;37.654;2022-11-20T08:09:32;99868.94;;;-3.71;76.42
50672;BME280;46021;55.882;37.654;2022-11-20T08:12:00;99870.72;;;-3.67;76.54
50672;BME280;46021;55.882;37.654;2022-11-20T08:14:44;99886.03;;;-3.67;76.82
50672;BME280;46021;55.882;37.654;2022-11-20T08:17:11;99878.94;;;-3.77;75.27
50672;BME280;46021;55.882;37.654;2022-11-20T08:19:40;99876.50;;;-3.74;76.71
50672;BME280;46021;55.882;37.654;2022-11-20T08:22:07;99881.50;;;-3.77;76.60
50672;BME280;46021;55.882;37.654;2022-11-20T08:24:34;99887.66;;;-3.69;76.82
50672;BME280;46021;55.882;37.654;2022-11-20T08:27:01;99892.47;;;-3.80;75.62
50672;BME280;46021;55.882;37.654;2022-11-20T08:29:28;99892.41;;;-3.81;75.91
50672;BME280;46021;55.882;37.654;2022-11-20T08:31:55;99880.53;;;-3.81;75.68
50672;BME280;46021;55.882;37.654;2022-11-20T08:34:23;99885.22;;;-3.66;76.20
50672;BME280;46021;55.882;37.654;2022-11-20T08:36:51;99871.63;;;-3.66;76.68
50672;BME280;46021;55.882;37.654;2022-11-20T08:39:18;99879.22;;;-3.68;76.10
50672;BME280;46021;55.882;37.654;2022-11-20T08:41:45;99887.88;;;-3.63;76.17
50672;BME280;46021;55.882;37.654;2022-11-20T08:44:13;99893.03;;;-3.60;76.83
50672;BME280;46021;55.882;37.654;2022-11-20T08:46:41;99906.09;;;-3.49;76.69
50672;BME280;46021;55.882;37.654;2022-11-20T08:49:11;99899.34;;;-3.47;75.97
50672;BME280;46021;55.882;37.654;2022-11-20T08:51:40;99898.53;;;-3.46;75.56
50672;BME280;46021;55.882;37.654;2022-11-20T08:54:08;99903.59;;;-3.47;75.51
50672;BME280;46021;55.882;37.654;2022-11-20T08:56:35;99896.44;;;-3.59;75.81
50672;BME280;46021;55.882;37.654;2022-11-20T08:59:03;99905.06;;;-3.54;76.01
50672;BME280;46021;55.882;37.654;2022-11-20T09:01:30;99917.13;;;-3.48;76.00
50672;BME280;46021;55.882;37.654;2022-11-20T09:03:57;99924.03;;;-3.44;75.22
50672;BME280;46021;55.882;37.654;2022-11-20T09:06:25;99933.53;;;-3.39;76.16
50672;BME280;46021;55.882;37.654;2022-11-20T09:08:52;99930.19;;;-3.38;75.51
50672;BME280;46021;55.882;37.654;2022-11-20T09:11:21;99938.91;;;-3.29;76.13
50672;BME280;46021;55.882;37.654;2022-11-20T09:13:48;99937.31;;;-3.26;74.99
50672;BME280;46021;55.882;37.654;2022-11-20T09:16:16;99940.72;;;-3.25;74.91
50672;BME280;46021;55.882;37.654;2022-11-20T09:18:43;99952.69;;;-3.23;75.94
50672;BME280;46021;55.882;37.654;2022-11-20T09:21:11;99945.59;;;-3.33;74.60
50672;BME280;46021;55.882;37.654;2022-11-20T09:23:39;99948.34;;;-3.25;74.59
50672;BME280;46021;55.882;37.654;2022-11-20T09:26:09;99946.69;;;-3.25;75.30
50672;BME280;46021;55.882;37.654;2022-11-20T09:28:38;99956.00;;;-3.27;75.44
50672;BME280;46021;55.882;37.654;2022-11-20T09:31:07;99963.88;;;-3.18;74.92
50672;BME280;46021;55.882;37.654;2022-11-20T09:33:35;99969.06;;;-3.15;75.43
50672;BME280;46021;55.882;37.654;2022-11-20T09:36:05;99972.69;;;-3.06;76.13
50672;BME280;46021;55.882;37.654;2022-11-20T09:38:32;99980.38;;;-3.05;75.35
50672;BME280;46021;55.882;37.654;2022-11-20T09:41:03;99991.53;;;-3.01;75.63
50672;BME280;46021;55.882;37.654;2022-11-20T09:43:41;99989.88;;;-2.99;75.13
50672;BME280;46021;55.882;37.654;2022-11-20T09:46:18;99985.63;;;-2.99;75.60
50672;BME280;46021;55.882;37.654;2022-11-20T09:49:06;99978.66;;;-3.06;74.75
50672;BME280;46021;55.882;37.654;2022-11-20T09:51:45;99989.19;;;-2.94;74.76
50672;BME280;46021;55.882;37.654;2022-11-20T09:54:17;99981.59;;;-2.92;74.58
50672;BME280;46021;55.882;37.654;2022-11-20T09:56:47;99983.34;;;-2.89;74.43
50672;BME280;46021;55.882;37.654;2022-11-20T09:59:35;99985.91;;;-2.89;74.22
50672;BME280;46021;55.882;37.654;2022-11-20T10:02:12;99985.53;;;-3.03;73.23
50672;BME280;46021;55.882;37.654;2022-11-20T10:04:45;99982.81;;;-3.09;73.97
50672;BME280;46021;55.882;37.654;2022-11-20T10:07:20;99986.28;;;-3.07;74.01
50672;BME280;46021;55.882;37.654;2022-11-20T10:09:52;99980.13;;;-3.14;73.80
50672;BME280;46021;55.882;37.654;2022-11-20T10:12:27;99988.88;;;-3.06;74.21
50672;BME280;46021;55.882;37.654;2022-11-20T10:15:16;99976.06;;;-3.07;75.38
50672;BME280;46021;55.882;37.654;2022-11-20T10:17:58;99993.97;;;-3.06;74.39
50672;BME280;46021;55.882;37.654;2022-11-20T10:20:33;100000.03;;;-3.02;74.43
50672;BME280;46021;55.882;37.654;2022-11-20T10:23:34;99992.53;;;-2.96;75.38
50672;BME280;46021;55.882;37.654;2022-11-20T10:26:17;99998.38;;;-2.99;74.47
50672;BME280;46021;55.882;37.654;2022-11-20T10:28:58;100002.72;;;-2.96;74.88
50672;BME280;46021;55.882;37.654;2022-11-20T10:31:33;99990.03;;;-2.93;74.46
50672;BME280;46021;55.882;37.654;2022-11-20T10:34:06;100000.44;;;-2.87;74.78
50672;BME280;46021;55.882;37.654;2022-11-20T10:36:38;99999.75;;;-2.81;74.88
50672;BME280;46021;55.882;37.654;2022-11-20T10:39:11;99996.31;;;-2.82;73.61
50672;BME280;46021;55.882;37.654;2022-11-20T10:41:42;100007.34;;;-2.83;75.08
50672;BME280;46021;55.882;37.654;2022-11-20T10:44:12;100008.19;;;-2.82;75.16
50672;BME280;46021;55.882;37.654;2022-11-20T10:47:03;100008.28;;;-2.79;75.08
50672;BME280;46021;55.882;37.654;2022-11-20T10:49:32;100002.28;;;-2.81;73.92
50672;BME280;46021;55.882;37.654;2022-11-20T10:52:06;100007.44;;;-2.80;74.73
50672;BME280;46021;55.882;37.654;2022-11-20T10:54:39;100016.06;;;-2.75;74.89
50672;BME280;46021;55.882;37.654;2022-11-20T10:57:17;100007.59;;;-2.73;75.28
50672;BME280;46021;55.882;37.654;2022-11-20T10:59:58;100016.22;;;-2.70;74.76
50672;BME280;46021;55.882;37.654;2022-11-20T11:02:34;100002.34;;;-2.80;74.25
50672;BME280;46021;55.882;37.654;2022-11-20T11:05:11;100009.16;;;-2.79;74.78
50672;BME280;46021;55.882;37.654;2022-11-20T11:07:42;100019.56;;;-2.71;74.55
50672;BME280;46021;55.882;37.654;2022-11-20T11:10:15;100014.22;;;-2.80;74.18
50672;BME280;46021;55.882;37.654;2022-11-20T11:12:45;100015.91;;;-2.81;75.07
50672;BME280;46021;55.882;37.654;2022-11-20T11:15:14;100015.00;;;-2.83;74.93
50672;BME280;46021;55.882;37.654;2022-11-20T11:17:52;100026.97;;;-2.80;74.72
50672;BME280;46021;55.882;37.654;2022-11-20T11:20:21;100030.34;;;-2.81;74.40
50672;BME280;46021;55.882;37.654;2022-11-20T11:22:51;100025.16;;;-2.84;73.95
50672;BME280;46021;55.882;37.654;2022-11-20T11:25:29;100024.19;;;-2.88;74.59
50672;BME280;46021;55.882;37.654;2022-11-20T11:28:01;100031.78;;;-2.91;74.63
50672;BME280;46021;55.882;37.654;2022-11-20T11:30:30;100029.16;;;-2.94;74.99
50672;BME280;46021;55.882;37.654;2022-11-20T11:33:10;100038.34;;;-2.99;74.97
50672;BME280;46021;55.882;37.654;2022-11-20T11:35:44;100027.16;;;-3.04;74.45
50672;BME280;46021;55.882;37.654;2022-11-20T11:38:15;100024.63;;;-3.04;74.77
50672;BME280;46021;55.882;37.654;2022-11-20T11:40:43;100030.75;;;-2.98;74.19
50672;BME280;46021;55.882;37.654;2022-11-20T11:43:21;100031.59;;;-2.97;74.07
50672;BME280;46021;55.882;37.654;2022-11-20T11:46:25;100033.19;;;-3.01;75.20
50672;BME280;46021;55.882;37.654;2022-11-20T11:48:57;100036.56;;;-3.02;74.75
50672;BME280;46021;55.882;37.654;2022-11-20T11:51:26;100031.38;;;-3.05;74.37
50672;BME280;46021;55.882;37.654;2022-11-20T11:53:58;100037.44;;;-3.01;75.47
50672;BME280;46021;55.882;37.654;2022-11-20T11:56:26;100040.81;;;-3.02;75.46
50672;BME280;46021;55.882;37.654;2022-11-20T11:58:56;100025.31;;;-3.08;74.98
50672;BME280;46021;55.882;37.654;2022-11-20T12:01:29;100029.56;;;-3.09;74.29
50672;BME280;46021;55.882;37.654;2022-11-20T12:04:04;100043.16;;;-3.08;74.96
50672;BME280;46021;55.882;37.654;2022-11-20T12:06:36;100037.09;;;-3.14;75.53
50672;BME280;46021;55.882;37.654;2022-11-20T12:09:08;100054.03;;;-3.16;75.14
50672;BME280;46021;55.882;37.654;2022-11-20T12:11:42;100050.09;;;-3.33;76.22
50672;BME280;46021;55.882;37.654;2022-11-20T12:14:15;100051.06;;;-3.29;76.27
50672;BME280;46021;55.882;37.654;2022-11-20T12:16:44;100047.59;;;-3.31;75.38
50672;BME280;46021;55.882;37.654;2022-11-20T12:19:14;100058.97;;;-3.20;75.47
50672;BME280;46021;55.882;37.654;2022-11-20T12:21:49;100058.34;;;-3.13;75.46
50672;BME280;46021;55.882;37.654;2022-11-20T12:24:33;100055.94;;;-3.08;75.90
50672;BME280;46021;55.882;37.654;2022-11-20T12:30:09;100059.59;;;-3.00;75.48
50672;BME280;46021;55.882;37.654;2022-11-20T12:35:48;100056.25;;;-2.98;76.20
50672;BME280;46021;55.882;37.654;2022-11-20T12:38:36;100052.09;;;-2.94;75.53
50672;BME280;46021;55.882;37.654;2022-11-20T12:41:12;100034.97;;;-2.98;75.66
50672;BME280;46021;55.882;37.654;2022-11-20T12:44:16;100033.34;;;-2.96;75.79
50672;BME280;46021;55.882;37.654;2022-11-20T12:47:16;100042.69;;;-2.95;75.18
50672;BME280;46021;55.882;37.654;2022-11-20T12:49:51;100050.19;;;-3.01;75.64
50672;BME280;46021;55.882;37.654;2022-11-20T12:52:35;100052.56;;;-3.07;76.09
50672;BME280;46021;55.882;37.654;2022-11-20T12:55:13;100059.31;;;-3.09;75.54
50672;BME280;46021;55.882;37.654;2022-11-20T12:57:48;100049.78;;;-3.15;75.31
50672;BME280;46021;55.882;37.654;2022-11-20T13:00:19;100047.19;;;-3.17;74.99
50672;BME280;46021;55.882;37.654;2022-11-20T13:03:06;100053.09;;;-3.19;76.23
50672;BME280;46021;55.882;37.654;2022-11-20T13:05:50;100060.81;;;-3.16;76.68
50672;BME280;46021;55.882;37.654;2022-11-20T13:08:23;100062.59;;;-3.14;75.95
50672;BME280;46021;55.882;37.654;2022-11-20T13:10:56;100078.03;;;-3.09;76.16